Time;durP1;ratioP1;P1;durP2;ratioP2;P2;SDS_P1;SDS_P2;PMS_P1;PMS_P2;Temp;Humidity;BMP_temperature;BMP_pressure;BME280_temperature;BME280_humidity;BME280_pressure;Samples;Min_cycle;Max_cycle;Signal;HPM_P1;HPM_P2
2023/12/23 00:00:12;;;;;;;1.77;0.40;;;;;;;1.94;100.00;99138.75;4971015;28;20296;-64
2023/12/23 00:02:38;;;;;;;1.40;0.30;;;;;;;1.96;100.00;99134.53;4969946;28;20483;-65
2023/12/23 00:05:03;;;;;;;1.67;0.17;;;;;;;2.01;100.00;99138.25;4971236;28;20193;-64
2023/12/23 00:07:29;;;;;;;2.63;0.30;;;;;;;2.04;100.00;99142.72;4971557;28;20442;-64
2023/12/23 00:09:54;;;;;;;1.43;0.30;;;;;;;2.06;100.00;99157.59;4971862;28;20554;-63
2023/12/23 00:12:19;;;;;;;1.40;0.30;;;;;;;2.07;100.00;99159.34;4971589;28;20034;-63
2023/12/23 00:14:45;;;;;;;1.65;0.30;;;;;;;2.11;100.00;99157.81;4971901;28;20506;-63
2023/12/23 00:17:10;;;;;;;2.77;0.43;;;;;;;2.12;100.00;99151.81;4971640;28;20506;-63
2023/12/23 00:19:35;;;;;;;1.77;0.30;;;;;;;2.18;100.00;99152.06;4971097;28;20139;-64
2023/12/23 00:22:01;;;;;;;1.70;0.30;;;;;;;2.23;100.00;99158.41;4971480;28;20118;-64
2023/12/23 00:24:29;;;;;;;1.30;0.30;;;;;;;2.24;100.00;99178.41;4973159;28;20046;-64
2023/12/23 00:26:57;;;;;;;6.22;0.70;;;;;;;2.27;100.00;99162.94;4971330;28;20039;-64
2023/12/23 00:29:24;;;;;;;2.40;0.40;;;;;;;2.29;100.00;99169.13;4971071;28;20040;-64
2023/12/23 00:31:49;;;;;;;4.95;0.50;;;;;;;2.31;100.00;99180.50;4969933;28;20049;-65
2023/12/23 00:34:15;;;;;;;3.45;0.40;;;;;;;2.29;100.00;99187.34;4970781;28;20411;-65
2023/12/23 00:36:40;;;;;;;3.10;0.43;;;;;;;2.31;100.00;99184.84;4969462;28;20484;-64
2023/12/23 00:39:06;;;;;;;0.97;0.20;;;;;;;2.30;100.00;99189.16;4969069;28;20042;-64
2023/12/23 00:41:31;;;;;;;1.27;0.30;;;;;;;2.31;100.00;99179.63;4969739;28;20043;-64
2023/12/23 00:43:57;;;;;;;4.60;0.50;;;;;;;2.29;100.00;99182.13;4973326;28;20065;-64
2023/12/23 00:46:22;;;;;;;3.40;0.43;;;;;;;2.29;100.00;99189.06;4973467;28;20066;-64
2023/12/23 00:48:47;;;;;;;2.27;0.40;;;;;;;2.28;100.00;99188.16;4972840;28;20118;-64
2023/12/23 00:51:13;;;;;;;2.20;0.57;;;;;;;2.34;100.00;99198.00;4974413;28;20049;-64
2023/12/23 00:53:38;;;;;;;3.63;0.30;;;;;;;2.35;100.00;99210.19;4973475;28;20130;-64
2023/12/23 00:56:04;;;;;;;3.03;0.93;;;;;;;2.37;100.00;99222.47;4974566;28;20282;-64
2023/12/23 00:58:30;;;;;;;1.15;0.20;;;;;;;2.41;100.00;99236.56;4973021;28;20395;-64
2023/12/23 01:00:55;;;;;;;5.43;0.50;;;;;;;2.47;100.00;99242.94;4974074;28;20046;-69
2023/12/23 01:03:21;;;;;;;7.17;0.40;;;;;;;2.44;100.00;99245.41;4974324;28;20034;-63
2023/12/23 01:05:46;;;;;;;2.97;0.50;;;;;;;2.47;100.00;99255.06;4974197;28;20043;-64
2023/12/23 01:08:11;;;;;;;2.13;0.32;;;;;;;2.48;100.00;99256.88;4974207;28;20578;-63
2023/12/23 01:10:37;;;;;;;1.27;0.40;;;;;;;2.49;100.00;99280.41;4972277;28;20054;-65
2023/12/23 01:13:02;;;;;;;2.63;0.40;;;;;;;2.49;100.00;99280.41;4974157;28;20496;-64
2023/12/23 01:15:28;;;;;;;3.40;0.40;;;;;;;2.46;100.00;99284.56;4973946;28;20035;-64
2023/12/23 01:17:53;;;;;;;2.05;0.38;;;;;;;2.48;100.00;99298.56;4972582;28;20526;-65
2023/12/23 01:20:19;;;;;;;1.47;0.30;;;;;;;2.50;100.00;99302.16;4971971;28;20376;-64
2023/12/23 01:22:44;;;;;;;1.63;0.40;;;;;;;2.51;100.00;99319.56;4973989;28;20443;-64
2023/12/23 01:25:09;;;;;;;4.40;0.40;;;;;;;2.47;99.42;99323.72;4974001;28;20149;-64
2023/12/23 01:27:35;;;;;;;2.17;0.40;;;;;;;2.49;98.83;99318.59;4973812;28;20658;-65
2023/12/23 01:30:00;;;;;;;2.53;0.60;;;;;;;2.49;98.54;99334.22;4973192;28;20129;-63
2023/12/23 01:32:26;;;;;;;1.67;0.43;;;;;;;2.43;97.79;99329.59;4972743;28;20399;-64
2023/12/23 01:34:51;;;;;;;1.63;0.50;;;;;;;2.44;97.48;99343.53;4973844;28;20473;-63
2023/12/23 01:37:16;;;;;;;1.93;0.40;;;;;;;2.44;96.68;99353.94;4964194;28;20039;-64
2023/12/23 01:39:42;;;;;;;3.33;0.40;;;;;;;2.45;96.24;99360.94;4972099;28;20643;-64
2023/12/23 01:42:07;;;;;;;2.20;0.40;;;;;;;2.49;95.88;99373.31;4973861;28;20126;-64
2023/12/23 01:44:32;;;;;;;3.00;0.50;;;;;;;2.50;94.78;99362.97;4973555;28;20126;-64
2023/12/23 01:47:00;;;;;;;6.70;0.60;;;;;;;2.50;94.36;99381.22;4973302;28;20039;-64
2023/12/23 01:49:27;;;;;;;4.75;0.60;;;;;;;2.54;93.81;99371.81;4972991;28;20031;-63
2023/12/23 01:51:54;;;;;;;3.17;0.40;;;;;;;2.52;92.59;99379.56;4974017;28;20046;-63
2023/12/23 01:54:21;;;;;;;2.25;0.40;;;;;;;2.45;93.28;99389.59;4973086;28;20031;-65
2023/12/23 01:56:47;;;;;;;2.67;0.35;;;;;;;2.41;93.43;99391.19;4972308;28;20051;-64
2023/12/23 01:59:12;;;;;;;14.33;1.27;;;;;;;2.46;93.66;99396.63;4971880;28;20042;-64
2023/12/23 02:01:39;;;;;;;5.20;0.85;;;;;;;2.51;93.51;99395.13;4971840;28;20049;-64
2023/12/23 02:04:05;;;;;;;1.42;0.32;;;;;;;2.50;93.04;99412.47;4972176;28;20043;-64
2023/12/23 02:06:30;;;;;;;2.77;0.30;;;;;;;2.53;93.00;99403.91;4971836;28;20029;-64
2023/12/23 02:08:55;;;;;;;2.73;0.50;;;;;;;2.55;92.85;99425.75;4972610;28;20035;-65
2023/12/23 02:12:00;;;;;;;3.30;0.40;;;;;;;2.58;91.98;99420.69;4973142;28;20061;-64
2023/12/23 02:14:47;;;;;;;1.98;0.30;;;;;;;2.60;90.61;99429.47;4969087;28;20395;-64
2023/12/23 02:17:13;;;;;;;1.98;0.30;;;;;;;2.61;89.56;99426.06;4971850;28;20594;-64
2023/12/23 02:19:38;;;;;;;4.07;0.50;;;;;;;2.64;88.49;99434.03;4972422;28;20567;-64
2023/12/23 02:22:04;;;;;;;3.77;0.40;;;;;;;2.67;88.43;99449.81;4972564;28;20531;-64
2023/12/23 02:24:29;;;;;;;4.03;0.40;;;;;;;2.69;87.34;99434.25;4972648;28;20035;-64
2023/12/23 02:27:02;;;;;;;1.43;0.30;;;;;;;2.67;87.24;99446.31;4972510;28;20511;-64
2023/12/23 02:29:29;;;;;;;2.20;0.47;;;;;;;2.64;88.04;99456.59;4972524;28;20030;-63
2023/12/23 02:31:56;;;;;;;1.63;0.52;;;;;;;2.62;87.81;99459.09;4971639;28;20034;-64
2023/12/23 02:34:22;;;;;;;3.67;0.35;;;;;;;2.63;87.72;99455.69;4972886;28;20042;-64
2023/12/23 02:36:48;;;;;;;5.10;0.50;;;;;;;2.67;86.96;99472.38;4972870;28;20078;-64
2023/12/23 02:39:14;;;;;;;1.15;0.30;;;;;;;2.64;86.76;99462.69;4972552;28;20039;-64
2023/12/23 02:41:39;;;;;;;5.00;0.70;;;;;;;2.66;87.26;99471.50;4976867;28;20578;-64
2023/12/23 02:44:06;;;;;;;4.95;0.70;;;;;;;2.65;87.34;99472.31;4974350;28;20436;-64
2023/12/23 02:46:31;;;;;;;2.33;0.57;;;;;;;2.65;87.09;99480.13;4973419;28;20031;-63
2023/12/23 02:48:57;;;;;;;1.50;0.30;;;;;;;2.65;86.81;99480.13;4971949;28;20130;-64
2023/12/23 02:51:24;;;;;;;1.60;0.40;;;;;;;2.63;86.64;99486.97;4972851;28;20286;-64
2023/12/23 02:53:50;;;;;;;1.55;0.30;;;;;;;2.61;86.35;99501.66;4971554;28;20035;-64
2023/12/23 02:56:15;;;;;;;3.17;0.40;;;;;;;2.57;86.52;99503.19;4973217;28;20651;-64
2023/12/23 02:58:40;;;;;;;1.70;0.30;;;;;;;2.54;86.04;99507.34;4972392;28;20114;-64
2023/12/23 03:01:07;;;;;;;2.57;0.47;;;;;;;2.52;85.93;99522.00;4972642;28;20293;-63
2023/12/23 03:03:33;;;;;;;2.63;0.40;;;;;;;2.53;85.11;99518.56;4972751;28;20038;-64
2023/12/23 03:05:59;;;;;;;1.57;0.30;;;;;;;2.48;84.91;99527.84;4971794;28;20046;-64
2023/12/23 03:08:24;;;;;;;1.27;0.30;;;;;;;2.45;85.37;99518.19;4969590;28;20582;-65
2023/12/23 03:10:51;;;;;;;2.77;0.30;;;;;;;2.43;85.76;99530.22;4971677;28;20031;-64
2023/12/23 03:13:17;;;;;;;1.67;0.40;;;;;;;2.39;85.94;99533.47;4970533;28;20599;-64
2023/12/23 03:18:11;;;;;;;5.05;1.30;;;;;;;2.42;86.42;99530.13;5067180;28;20423;-64
2023/12/23 03:20:37;;;;;;;3.35;0.50;;;;;;;2.41;86.66;99526.66;5049728;28;20378;-64
2023/12/23 03:23:02;;;;;;;2.10;0.30;;;;;;;2.44;86.98;99528.50;5046218;28;20042;-64
2023/12/23 03:25:29;;;;;;;1.93;0.40;;;;;;;2.43;87.01;99526.72;5048601;28;20030;-65
2023/12/23 03:27:55;;;;;;;2.17;0.45;;;;;;;2.47;86.95;99542.59;5047143;28;20033;-64
2023/12/23 03:30:20;;;;;;;4.63;1.00;;;;;;;2.50;86.90;99554.91;5045223;28;20386;-64
2023/12/23 03:32:46;;;;;;;2.20;0.20;;;;;;;2.48;86.29;99543.50;5045833;28;20087;-64
2023/12/23 03:37:05;;;;;;;1.63;0.30;;;;;;;2.48;86.90;99556.53;5067085;28;20776;-63
2023/12/23 03:39:31;;;;;;;6.03;0.93;;;;;;;2.50;87.07;99554.91;5059744;28;20029;-63
2023/12/23 03:41:56;;;;;;;4.45;0.95;;;;;;;2.51;86.82;99560.22;5045949;28;20033;-64
2023/12/23 03:44:21;;;;;;;2.37;0.40;;;;;;;2.55;86.52;99563.88;5047352;28;20602;-64
2023/12/23 03:46:47;;;;;;;2.33;0.50;;;;;;;2.53;86.05;99563.78;5047287;28;20112;-62
2023/12/23 03:49:12;;;;;;;6.17;1.00;;;;;;;2.58;85.82;99577.06;5046618;28;20106;-63
2023/12/23 03:51:38;;;;;;;4.93;0.67;;;;;;;2.60;85.20;99570.22;5047232;28;20112;-63
2023/12/23 03:54:03;;;;;;;2.70;0.40;;;;;;;2.60;85.08;99581.53;5046970;28;20464;-62
2023/12/23 03:56:29;;;;;;;2.37;0.50;;;;;;;2.65;85.16;99565.25;5045653;28;20487;-62
2023/12/23 03:58:54;;;;;;;2.43;0.40;;;;;;;2.63;85.03;99566.88;5046279;28;20048;-63
2023/12/23 04:01:19;;;;;;;15.50;0.90;;;;;;;2.66;84.91;99580.97;5046031;28;20029;-62
2023/12/23 04:03:45;;;;;;;5.10;1.00;;;;;;;2.64;84.59;99572.16;5045749;28;20383;-63
2023/12/23 04:06:14;;;;;;;4.30;0.93;;;;;;;2.64;84.80;99587.81;5046718;28;20037;-63
2023/12/23 04:08:40;;;;;;;6.40;0.47;;;;;;;2.63;85.36;99579.91;5046496;28;20036;-62
2023/12/23 04:11:05;;;;;;;4.40;0.70;;;;;;;2.63;84.95;99564.25;5046443;28;20033;-63
2023/12/23 04:13:30;;;;;;;5.13;0.77;;;;;;;2.68;85.10;99583.66;5046839;28;20394;-63
2023/12/23 04:15:56;;;;;;;2.63;0.50;;;;;;;2.69;84.58;99595.88;5046662;28;20040;-63
2023/12/23 04:18:21;;;;;;;3.17;0.33;;;;;;;2.73;84.16;99603.94;5046677;28;20513;-63
2023/12/23 04:20:46;;;;;;;5.47;0.70;;;;;;;2.72;84.30;99607.34;5044520;28;20028;-62
2023/12/23 04:23:12;;;;;;;6.27;0.93;;;;;;;2.72;83.87;99599.53;5044985;28;20451;-63
2023/12/23 04:25:37;;;;;;;2.30;0.57;;;;;;;2.74;84.04;99594.41;5046242;28;20131;-62
2023/12/23 04:28:03;;;;;;;9.57;0.87;;;;;;;2.74;83.92;99592.69;5046304;28;20041;-63
2023/12/23 04:30:29;;;;;;;5.38;0.65;;;;;;;2.76;84.02;99598.91;5044758;28;20517;-62
2023/12/23 04:32:54;;;;;;;3.37;0.60;;;;;;;2.79;83.15;99593.84;5045280;28;20039;-63
2023/12/23 04:35:21;;;;;;;8.63;0.90;;;;;;;2.82;83.08;99601.81;5044710;28;20062;-63
2023/12/23 04:37:46;;;;;;;4.70;0.50;;;;;;;2.84;82.94;99602.81;5046109;28;20279;-63
2023/12/23 04:40:12;;;;;;;2.45;0.52;;;;;;;2.86;83.01;99601.16;5044505;28;20500;-62
2023/12/23 04:42:39;;;;;;;7.13;0.67;;;;;;;2.86;82.88;99603.75;5044714;28;20103;-63
2023/12/23 04:45:04;;;;;;;3.97;0.70;;;;;;;2.85;83.06;99596.78;5044751;28;20497;-63
2023/12/23 04:47:30;;;;;;;7.50;0.90;;;;;;;2.86;83.10;99605.50;5038065;28;20355;-63
2023/12/23 04:49:55;;;;;;;4.23;0.60;;;;;;;2.88;82.84;99611.66;5030956;28;20489;-63
2023/12/23 04:52:21;;;;;;;5.32;0.95;;;;;;;2.90;83.15;99605.75;5031199;28;20494;-63
2023/12/23 04:54:46;;;;;;;8.90;1.07;;;;;;;2.92;83.12;99596.25;5031244;28;20087;-65
2023/12/23 04:57:12;;;;;;;5.63;0.80;;;;;;;2.97;82.53;99594.78;5032291;28;20394;-64
2023/12/23 04:59:37;;;;;;;4.35;0.88;;;;;;;2.96;82.86;99586.91;5030763;28;20125;-64
2023/12/23 05:02:03;;;;;;;7.87;0.87;;;;;;;2.95;83.01;99578.19;5032341;28;20088;-64
2023/12/23 05:04:29;;;;;;;8.23;1.30;;;;;;;2.99;83.05;99582.75;5031120;28;20049;-64
2023/12/23 05:06:55;;;;;;;6.57;1.20;;;;;;;3.04;82.73;99576.06;5030858;28;20087;-64
2023/12/23 05:09:20;;;;;;;10.13;0.95;;;;;;;3.03;82.79;99587.28;5031739;28;20064;-65
2023/12/23 05:11:46;;;;;;;10.50;1.30;;;;;;;3.03;82.94;99587.28;5031317;28;20044;-65
2023/12/23 05:14:11;;;;;;;12.77;0.80;;;;;;;3.11;83.11;99595.50;5032393;28;20113;-63
2023/12/23 05:16:37;;;;;;;6.07;0.75;;;;;;;3.15;82.94;99584.44;5031205;28;20116;-63
2023/12/23 05:19:03;;;;;;;7.37;1.00;;;;;;;3.19;82.82;99590.69;5031587;28;20051;-63
2023/12/23 05:21:28;;;;;;;9.20;0.70;;;;;;;3.22;82.78;99589.13;5032443;28;20404;-62
2023/12/23 05:23:54;;;;;;;5.43;0.93;;;;;;;3.22;82.79;99575.19;5033404;28;20397;-64
2023/12/23 05:26:20;;;;;;;6.13;1.07;;;;;;;3.21;83.31;99581.22;5032440;28;20104;-64
2023/12/23 05:28:45;;;;;;;8.30;0.98;;;;;;;3.19;83.53;99582.88;5030417;28;20485;-64
2023/12/23 05:31:10;;;;;;;7.73;1.20;;;;;;;3.21;83.41;99594.25;5031516;28;20481;-63
2023/12/23 05:33:36;;;;;;;11.57;1.53;;;;;;;3.24;83.82;99586.63;5031676;28;20121;-64
2023/12/23 05:36:01;;;;;;;8.70;1.00;;;;;;;3.27;83.64;99591.97;5031479;28;20037;-63
2023/12/23 05:38:27;;;;;;;7.60;0.90;;;;;;;3.28;83.78;99583.34;5031523;28;20068;-64
2023/12/23 05:40:52;;;;;;;9.57;1.13;;;;;;;3.32;84.04;99588.78;5031423;28;20037;-63
2023/12/23 05:43:17;;;;;;;6.47;0.77;;;;;;;3.35;83.76;99588.97;5031518;28;20033;-63
2023/12/23 05:45:43;;;;;;;6.23;0.70;;;;;;;3.39;83.76;99587.38;5030025;28;20120;-63
2023/12/23 05:48:08;;;;;;;4.10;0.63;;;;;;;3.40;84.12;99586.56;5013298;28;20537;-63
2023/12/23 05:50:33;;;;;;;5.00;0.70;;;;;;;3.42;84.44;99574.47;5024043;28;20049;-64
2023/12/23 05:52:59;;;;;;;6.32;0.70;;;;;;;3.40;84.93;99584.84;5031087;28;20052;-63
2023/12/23 05:55:24;;;;;;;7.00;0.73;;;;;;;3.43;85.21;99582.41;5031154;28;20120;-66
2023/12/23 05:57:50;;;;;;;6.13;0.80;;;;;;;3.40;85.74;99579.63;4991355;28;20058;-66
2023/12/23 06:00:16;;;;;;;11.30;1.20;;;;;;;3.41;85.96;99584.03;4989992;28;20113;-67
2023/12/23 06:02:41;;;;;;;5.53;0.77;;;;;;;3.38;86.37;99585.59;4990466;28;20065;-67
2023/12/23 06:05:06;;;;;;;9.33;0.90;;;;;;;3.37;86.43;99568.13;4991565;28;20535;-67
2023/12/23 06:07:34;;;;;;;7.53;0.73;;;;;;;3.39;87.13;99558.69;4992022;28;20042;-67
2023/12/23 06:09:59;;;;;;;5.03;1.33;;;;;;;3.41;87.46;99573.59;4990048;28;20045;-67
2023/12/23 06:12:24;;;;;;;3.87;0.93;;;;;;;3.33;87.99;99558.38;4990494;28;20034;-67
2023/12/23 06:14:50;;;;;;;2.83;0.47;;;;;;;3.27;88.75;99560.66;4991801;28;20042;-67
2023/12/23 06:17:15;;;;;;;3.07;0.63;;;;;;;3.20;89.04;99555.97;4991268;28;20277;-67
2023/12/23 06:19:41;;;;;;;4.60;0.67;;;;;;;3.17;89.54;99566.22;4990956;28;20108;-66
2023/12/23 06:22:07;;;;;;;5.10;1.20;;;;;;;3.14;90.03;99558.25;4990464;28;20065;-65
2023/12/23 06:24:33;;;;;;;3.53;0.60;;;;;;;3.13;90.76;99546.03;4990730;28;20034;-66
2023/12/23 06:26:58;;;;;;;11.13;1.10;;;;;;;3.11;91.20;99550.28;4991689;28;20038;-66
2023/12/23 06:29:24;;;;;;;6.63;0.67;;;;;;;3.08;91.54;99540.59;4989134;28;20030;-66
2023/12/23 06:31:49;;;;;;;9.43;0.77;;;;;;;3.10;91.92;99553.72;4990369;28;20109;-65
2023/12/23 06:34:14;;;;;;;8.70;0.90;;;;;;;3.11;91.93;99539.84;4990960;28;20109;-65
2023/12/23 06:36:40;;;;;;;8.80;0.60;;;;;;;3.12;91.91;99539.00;4983557;28;20045;-66
2023/12/23 06:39:05;;;;;;;6.90;1.60;;;;;;;3.11;92.59;99535.50;4986986;28;20273;-68
2023/12/23 06:41:30;;;;;;;12.53;1.00;;;;;;;3.11;92.53;99529.44;4984132;28;20030;-65
2023/12/23 06:43:56;;;;;;;4.83;1.43;;;;;;;3.12;92.70;99525.97;4985823;28;20062;-66
2023/12/23 06:46:21;;;;;;;8.67;0.90;;;;;;;3.15;92.96;99523.53;4991047;28;20087;-66
2023/12/23 06:48:47;;;;;;;6.77;1.00;;;;;;;3.17;93.38;99525.38;4988548;28;20030;-66
2023/12/23 06:51:12;;;;;;;5.80;0.73;;;;;;;3.19;93.44;99517.66;4990449;28;20284;-66
2023/12/23 06:53:37;;;;;;;7.63;0.80;;;;;;;3.24;93.35;99530.09;4989433;28;20022;-66
2023/12/23 06:56:06;;;;;;;6.87;0.90;;;;;;;3.29;93.24;99526.03;4990571;28;20133;-66
2023/12/23 06:58:32;;;;;;;6.45;0.70;;;;;;;3.34;93.05;99534.06;4990613;28;20482;-66
2023/12/23 07:00:57;;;;;;;9.43;1.60;;;;;;;3.35;93.07;99526.31;4990079;28;20050;-66
2023/12/23 07:03:22;;;;;;;17.67;0.70;;;;;;;3.39;93.14;99530.88;4990663;28;20080;-66
2023/12/23 07:05:48;;;;;;;6.38;0.80;;;;;;;3.43;93.34;99532.81;4990385;28;20022;-67
2023/12/23 07:08:13;;;;;;;16.20;1.03;;;;;;;3.43;93.33;99529.31;4990373;28;20469;-66
2023/12/23 07:10:39;;;;;;;7.10;1.00;;;;;;;3.40;93.83;99539.59;4988529;28;20049;-66
2023/12/23 07:13:04;;;;;;;8.27;1.00;;;;;;;3.42;94.04;99538.84;4991251;28;20038;-66
2023/12/23 07:15:30;;;;;;;7.32;0.85;;;;;;;3.40;94.71;99534.38;4983094;28;20081;-65
2023/12/23 07:17:55;;;;;;;10.33;1.20;;;;;;;3.37;95.22;99514.22;4990276;28;20041;-65
2023/12/23 07:20:21;;;;;;;8.53;0.67;;;;;;;3.36;95.34;99509.81;4988407;28;20031;-65
2023/12/23 07:22:48;;;;;;;15.60;1.33;;;;;;;3.32;95.73;99504.38;4990468;28;20042;-63
2023/12/23 07:25:13;;;;;;;6.05;1.00;;;;;;;3.25;96.31;99502.31;4989514;28;20489;-65
2023/12/23 07:27:38;;;;;;;4.47;0.90;;;;;;;3.19;97.15;99515.94;4989169;28;20030;-66
2023/12/23 07:30:04;;;;;;;3.77;0.80;;;;;;;3.13;97.37;99528.66;4988638;28;20499;-66
2023/12/23 07:32:30;;;;;;;8.13;0.88;;;;;;;3.10;98.03;99525.91;4990018;28;20026;-65
2023/12/23 07:34:55;;;;;;;7.73;1.27;;;;;;;3.05;99.02;99516.97;4989390;28;20125;-64
2023/12/23 07:37:20;;;;;;;3.90;0.87;;;;;;;3.02;98.97;99499.44;4989422;28;20109;-65
2023/12/23 07:39:46;;;;;;;7.90;0.80;;;;;;;2.99;99.79;99496.69;4990103;28;20169;-65
2023/12/23 07:42:12;;;;;;;6.70;0.77;;;;;;;3.00;99.98;99501.09;4977265;28;20050;-65
2023/12/23 07:44:38;;;;;;;4.90;0.57;;;;;;;2.99;100.00;99496.69;4988334;28;20038;-66
2023/12/23 07:47:04;;;;;;;3.70;0.50;;;;;;;3.01;100.00;99502.84;4988861;28;20047;-65
2023/12/23 07:49:31;;;;;;;8.10;0.90;;;;;;;3.03;100.00;99496.00;4929970;28;20071;-66
2023/12/23 07:51:56;;;;;;;7.97;0.70;;;;;;;3.07;100.00;99490.94;5021584;28;20037;-64
2023/12/23 07:54:22;;;;;;;5.28;0.98;;;;;;;3.08;100.00;99495.34;5009996;28;20030;-65
2023/12/23 07:56:47;;;;;;;5.43;0.57;;;;;;;3.08;100.00;99487.50;5009782;28;20611;-66
2023/12/23 07:59:12;;;;;;;4.63;0.60;;;;;;;3.09;100.00;99484.09;5009415;28;20052;-66
2023/12/23 08:01:46;;;;;;;5.50;0.80;;;;;;;3.08;100.00;99477.97;5009980;28;20613;-65
2023/12/23 08:04:13;;;;;;;5.35;0.95;;;;;;;3.09;100.00;99484.09;5010500;28;20038;-65
2023/12/23 08:06:38;;;;;;;7.22;0.80;;;;;;;3.10;100.00;99481.56;5010940;28;20100;-66
2023/12/23 08:09:04;;;;;;;7.60;0.70;;;;;;;3.10;100.00;99480.69;5010292;28;20509;-66
2023/12/23 08:11:29;;;;;;;6.20;0.50;;;;;;;3.11;100.00;99485.06;5011213;28;20500;-64
2023/12/23 08:13:55;;;;;;;6.87;1.30;;;;;;;3.11;100.00;99485.06;5012028;28;20375;-65
2023/12/23 08:16:20;;;;;;;5.57;0.83;;;;;;;3.13;100.00;99471.28;5011494;28;20037;-64
2023/12/23 08:18:46;;;;;;;4.50;0.83;;;;;;;3.14;100.00;99477.41;5010739;28;20038;-64
2023/12/23 08:21:11;;;;;;;5.63;0.88;;;;;;;3.16;100.00;99481.00;5009007;28;20038;-66
2023/12/23 08:23:36;;;;;;;4.43;0.60;;;;;;;3.16;100.00;99481.00;5013268;28;20041;-70
2023/12/23 08:26:02;;;;;;;4.57;0.70;;;;;;;3.16;100.00;99488.81;5013536;28;20105;-66
2023/12/23 08:28:27;;;;;;;5.10;0.67;;;;;;;3.15;100.00;99484.41;5013345;28;20045;-67
2023/12/23 08:30:53;;;;;;;5.97;0.90;;;;;;;3.16;100.00;99481.00;5013438;28;20046;-65
2023/12/23 08:33:18;;;;;;;10.10;0.83;;;;;;;3.14;100.00;99480.91;5013466;28;20046;-65
2023/12/23 08:35:43;;;;;;;7.47;0.70;;;;;;;3.16;100.00;99481.00;5013720;28;20108;-65
2023/12/23 08:38:09;;;;;;;10.57;0.80;;;;;;;3.15;100.00;99487.91;5013558;28;20483;-68
2023/12/23 08:40:41;;;;;;;5.63;0.60;;;;;;;3.17;100.00;99477.53;5013964;28;20538;-65
2023/12/23 08:43:06;;;;;;;3.50;0.50;;;;;;;3.19;100.00;99482.03;5014589;28;20030;-67
2023/12/23 08:45:32;;;;;;;7.43;0.95;;;;;;;3.22;100.00;99483.88;5013993;28;20026;-66
2023/12/23 08:47:58;;;;;;;7.90;1.27;;;;;;;3.23;100.00;99473.53;5013267;28;20049;-67
2023/12/23 08:50:24;;;;;;;10.43;1.02;;;;;;;3.27;100.00;99477.16;5014181;28;20096;-65
2023/12/23 08:52:49;;;;;;;10.97;1.97;;;;;;;3.29;100.00;99476.44;5013260;28;20108;-65
2023/12/23 08:55:15;;;;;;;2.85;0.77;;;;;;;3.34;100.00;99477.56;5013465;28;20120;-62
2023/12/23 08:57:41;;;;;;;4.10;0.77;;;;;;;3.40;100.00;99482.19;5013173;28;20105;-64
2023/12/23 09:00:07;;;;;;;8.23;1.10;;;;;;;3.44;100.00;99484.13;5013168;28;20038;-65
2023/12/23 09:02:33;;;;;;;6.28;0.90;;;;;;;3.48;100.00;99486.94;5013647;28;20535;-65
2023/12/23 09:04:58;;;;;;;7.40;0.70;;;;;;;3.57;100.00;99486.50;5013482;28;20041;-63
2023/12/23 09:07:24;;;;;;;7.43;0.80;;;;;;;3.79;100.00;99489.31;5013659;28;20030;-66
2023/12/23 09:09:49;;;;;;;1.63;0.33;;;;;;;4.06;100.00;99481.88;5013825;28;20301;-64
2023/12/23 09:12:15;;;;;;;3.10;0.60;;;;;;;3.96;100.00;99492.72;5013553;28;20061;-64
2023/12/23 09:14:40;;;;;;;2.30;0.50;;;;;;;3.87;100.00;99482.72;5012288;28;20033;-64
2023/12/23 09:17:06;;;;;;;4.27;0.60;;;;;;;3.83;100.00;99485.13;5012455;28;20038;-63
2023/12/23 09:19:32;;;;;;;4.18;0.70;;;;;;;3.86;100.00;99487.88;5012544;28;20033;-64
2023/12/23 09:21:57;;;;;;;5.93;0.60;;;;;;;3.82;100.00;99494.69;5012820;28;20087;-64
2023/12/23 09:24:22;;;;;;;3.73;0.70;;;;;;;3.80;100.00;99493.69;5012491;28;20030;-64
2023/12/23 09:26:48;;;;;;;3.97;0.70;;;;;;;3.76;100.00;99494.38;5012438;28;20112;-64
2023/12/23 09:29:14;;;;;;;4.47;0.87;;;;;;;3.72;100.00;99489.84;5012060;28;20056;-65
2023/12/23 09:31:39;;;;;;;1.75;0.30;;;;;;;3.67;100.00;99486.13;5012373;28;20030;-64
2023/12/23 09:34:05;;;;;;;1.93;0.40;;;;;;;3.63;100.00;99491.13;5011602;28;20172;-64
2023/12/23 09:36:30;;;;;;;3.15;0.50;;;;;;;3.61;100.00;99487.53;5011906;28;20041;-64
2023/12/23 09:38:56;;;;;;;4.87;0.70;;;;;;;3.58;100.00;99488.28;5011766;28;20034;-64
2023/12/23 09:41:21;;;;;;;3.13;0.47;;;;;;;3.57;100.00;99486.50;5011900;28;20033;-65
2023/12/23 09:43:49;;;;;;;3.42;0.57;;;;;;;3.56;100.00;99494.25;5011967;28;20037;-63
2023/12/23 09:46:15;;;;;;;2.33;0.70;;;;;;;3.51;100.00;99494.03;5011260;28;20088;-63
2023/12/23 09:48:41;;;;;;;2.72;0.70;;;;;;;3.47;100.00;99481.66;5011668;28;20037;-64
2023/12/23 09:51:07;;;;;;;1.77;0.30;;;;;;;3.45;100.00;99483.31;5011914;28;20061;-64
2023/12/23 09:53:37;;;;;;;2.25;0.47;;;;;;;3.44;100.00;99489.34;5012307;28;20052;-64
2023/12/23 09:56:03;;;;;;;5.32;0.50;;;;;;;3.37;100.00;99490.75;5012685;28;20478;-68
2023/12/23 09:58:29;;;;;;;3.13;0.50;;;;;;;3.34;100.00;99493.22;5011990;28;20033;-69
2023/12/23 10:00:54;;;;;;;4.30;0.43;;;;;;;3.32;100.00;99499.16;5012484;28;20129;-70
2023/12/23 10:03:23;;;;;;;4.50;0.40;;;;;;;3.30;100.00;99493.00;5011813;28;20461;-63
2023/12/23 10:05:51;;;;;;;3.47;0.73;;;;;;;3.29;100.00;99499.03;5012099;28;20053;-64
2023/12/23 10:08:16;;;;;;;4.85;0.60;;;;;;;3.29;100.00;99496.41;5012788;28;20052;-64
2023/12/23 10:10:43;;;;;;;3.73;0.70;;;;;;;3.30;100.00;99500.81;5012267;28;20022;-68
2023/12/23 10:13:08;;;;;;;3.22;0.52;;;;;;;3.30;100.00;99506.03;5012265;28;20100;-68
2023/12/23 10:15:34;;;;;;;3.92;0.40;;;;;;;3.30;100.00;99506.94;5010782;28;20037;-69
2023/12/23 10:18:03;;;;;;;6.00;0.53;;;;;;;3.36;100.00;99511.53;5011082;28;20040;-67
2023/12/23 10:20:29;;;;;;;3.40;0.88;;;;;;;3.35;100.00;99504.56;5010793;28;20096;-64
2023/12/23 10:22:54;;;;;;;2.37;0.67;;;;;;;3.33;100.00;99501.88;5011353;28;20065;-64
2023/12/23 10:25:19;;;;;;;3.83;0.55;;;;;;;3.34;100.00;99503.66;5011204;28;20057;-63
2023/12/23 10:27:50;;;;;;;3.73;0.60;;;;;;;3.36;100.00;99506.31;5010828;28;20126;-63
2023/12/23 10:30:17;;;;;;;2.60;0.55;;;;;;;3.36;100.00;99501.09;5009405;28;20152;-63
2023/12/23 10:32:47;;;;;;;1.83;0.40;;;;;;;3.37;100.00;99514.22;5009586;28;20034;-62
2023/12/23 10:35:15;;;;;;;9.88;0.70;;;;;;;3.35;100.00;99494.13;5006165;28;20052;-63
2023/12/23 10:37:42;;;;;;;1.92;0.40;;;;;;;3.35;100.00;99491.50;5010936;28;20513;-64
2023/12/23 10:40:20;;;;;;;4.00;0.60;;;;;;;3.34;100.00;99494.94;5009352;28;20034;-65
2023/12/23 10:42:47;;;;;;;3.60;0.73;;;;;;;3.33;100.00;99494.03;5012053;28;20041;-63
2023/12/23 10:45:12;;;;;;;2.43;0.40;;;;;;;3.32;100.00;99499.16;5013839;28;20573;-64
2023/12/23 10:47:39;;;;;;;2.53;0.50;;;;;;;3.29;100.00;99491.19;5012841;28;20038;-64
2023/12/23 10:50:06;;;;;;;4.00;0.50;;;;;;;3.27;100.00;99490.22;5011261;28;20033;-63
2023/12/23 10:52:32;;;;;;;3.10;0.60;;;;;;;3.25;100.00;99497.09;5011058;28;20037;-63
2023/12/23 10:55:01;;;;;;;4.05;0.60;;;;;;;3.26;100.00;99491.03;5008845;28;20053;-65
2023/12/23 10:57:28;;;;;;;6.73;0.93;;;;;;;3.26;100.00;99493.63;5011045;28;20132;-64
2023/12/23 10:59:53;;;;;;;3.35;0.70;;;;;;;3.25;100.00;99500.59;5010027;28;20132;-65
2023/12/23 11:02:26;;;;;;;3.23;0.70;;;;;;;3.25;100.00;99500.59;5010328;28;20121;-65
2023/12/23 11:04:54;;;;;;;3.33;0.50;;;;;;;3.27;100.00;99503.25;5010036;28;20030;-65
2023/12/23 11:07:25;;;;;;;3.97;0.70;;;;;;;3.27;100.00;99493.72;5009865;28;20034;-64
2023/12/23 11:09:52;;;;;;;3.35;0.50;;;;;;;3.30;100.00;99493.00;5010781;28;20029;-63
2023/12/23 11:12:18;;;;;;;3.55;0.60;;;;;;;3.34;100.00;99495.81;5010067;28;20549;-65
2023/12/23 11:14:44;;;;;;;7.03;0.80;;;;;;;3.36;100.00;99495.88;5009923;28;20034;-65
2023/12/23 11:17:23;;;;;;;4.90;0.73;;;;;;;3.34;100.00;99493.22;5009750;28;20494;-65
2023/12/23 11:19:49;;;;;;;3.10;0.88;;;;;;;3.33;100.00;99495.75;5009572;28;20044;-64
2023/12/23 11:22:24;;;;;;;3.20;0.40;;;;;;;3.32;100.00;99499.16;5009596;28;20026;-64
2023/12/23 11:24:50;;;;;;;2.80;0.60;;;;;;;3.30;100.00;99506.94;5009796;28;20042;-64
2023/12/23 11:27:35;;;;;;;1.97;0.30;;;;;;;3.32;100.00;99512.22;5009986;28;20045;-64
2023/12/23 11:30:06;;;;;;;2.20;0.40;;;;;;;3.27;100.00;99511.97;5009612;28;20846;-65
2023/12/23 11:32:41;;;;;;;4.38;0.50;;;;;;;3.26;100.00;99509.28;5010637;28;20026;-63
2023/12/23 11:35:14;;;;;;;2.47;0.40;;;;;;;3.23;100.00;99511.75;5016694;28;20145;-64